Oak Harbor, Washington
Current Conditions -  °F | °C
As of 11:56 AM on Monday 24 Nov 2014 (Local Time) from KNUW Reporting Station
Overcast Overcast  
Wind Chill: 50°   Ceiling: 9000
Heat Index: 50°   Visibility: 10mi
Dew Point: 40°   Wind: 17mph
Humidity: 68%   Direction: 130°SE
Pressure: 30.22"   Gusts: 26mph
Location:  48.29°N, 122.64°W
Report Text: KNUW 241956Z 13015G23KT 10SM FEW020 SCT060 OVC090 10/04 A3022 RMK AO2 SLP236 T01000044 $
Loading
Personal Weather Stations






























Interactive Weather Map New forecast layout! Learn more

10-Day Weather Forecast

Advertisements
Track Severe Weather on mobile